KGCY/GCY METAR and TAF weather

Enter ICAO airport designator
Station Type Date Time Source
KGCY METAR 2019/08/23 18:35 UTC NOAA

KGCY 231835Z AUTO 32007KT 10SM SCT035 28/20 A3006 RMK A01


Station Type Date Time Source
KGCY Decoded METAR 2019/08/23 18:35 UTC NOAA

Station name not available
Aug 23, 2019 - 02:35 PM EDT / 2019.08.23 1835 UTC
Wind: from the NW (320 degrees) at 8 MPH (7 KT):0
Visibility: 10 mile(s):0
Sky conditions: partly cloudy
Temperature: 82 F (28 C)
Dew Point: 68 F (20 C)
Relative Humidity: 61%
Pressure (altimeter): 30.06 in. Hg (1017 hPa)
ob: KGCY 231835Z AUTO 32007KT 10SM SCT035 28/20 A3006 RMK A01
cycle: 18

Station Type Date Time Source
KGCY TAF UTC NOAA

Error!

Example: see airport list